createdAt,value
2022-08-12T00:00:59.295Z,31.9
2022-08-12T00:02:02.382Z,31.7
2022-08-12T00:03:06.827Z,32.1
2022-08-12T00:04:08.811Z,32
2022-08-12T00:05:11.297Z,32.1
2022-08-12T00:06:13.486Z,32.1
2022-08-12T00:07:15.961Z,32
2022-08-12T00:08:28.760Z,32
2022-08-12T00:09:26.189Z,32.3
2022-08-12T00:10:27.899Z,32
2022-08-12T00:11:30.106Z,31.8
2022-08-12T00:12:32.613Z,32
2022-08-12T00:13:35.176Z,32
2022-08-12T00:14:36.803Z,32
2022-08-12T00:15:38.728Z,32.1
2022-08-12T00:16:41.205Z,32.1
2022-08-12T00:17:43.671Z,32.1
2022-08-12T00:18:45.572Z,31.9
2022-08-12T00:19:48.035Z,31.9
2022-08-12T00:20:50.512Z,32.3
2022-08-12T00:21:52.707Z,32.3
2022-08-12T00:22:59.490Z,32.1
2022-08-12T00:24:01.934Z,32.1
2022-08-12T00:25:04.428Z,32
2022-08-12T00:26:22.171Z,32
2022-08-12T00:27:11.894Z,32.1
2022-08-12T00:28:14.089Z,32
2022-08-12T00:29:16.566Z,32.1
2022-08-12T00:30:19.043Z,32.4
2022-08-12T00:31:20.952Z,32.2
2022-08-12T00:32:35.069Z,32.1
2022-08-12T00:33:29.745Z,32
2022-08-12T00:34:33.441Z,32
2022-08-12T00:35:36.694Z,32.1
2022-08-12T00:36:41.976Z,32
2022-08-12T00:37:50.730Z,32.1
2022-08-12T00:38:52.650Z,32.2
2022-08-12T00:39:55.686Z,32
2022-08-12T00:40:58.065Z,32.2
2022-08-12T00:42:00.007Z,32.2
2022-08-12T00:43:02.203Z,32.2
2022-08-12T00:44:04.676Z,32
2022-08-12T00:45:07.688Z,32.1
2022-08-12T00:46:09.336Z,32.2
2022-08-12T00:47:24.356Z,32.2
2022-08-12T00:48:16.263Z,32.2
2022-08-12T00:49:18.750Z,32.2
2022-08-12T00:50:20.948Z,32.3
2022-08-12T00:51:23.430Z,32
2022-08-12T00:52:29.758Z,32.3
2022-08-12T00:53:31.934Z,31.9
2022-08-12T00:54:34.129Z,32.3
2022-08-12T00:55:36.332Z,32.3
2022-08-12T00:56:38.809Z,32
2022-08-12T00:57:41.286Z,32.2
2022-08-12T00:58:43.499Z,32.3
2022-08-12T00:59:45.972Z,32.2
2022-08-12T01:00:47.911Z,32.3
2022-08-12T01:02:00.823Z,32.2
2022-08-12T01:02:54.810Z,32.1
2022-08-12T01:03:56.733Z,32.2
2022-08-12T01:05:01.732Z,32.1
2022-08-12T01:06:04.205Z,32.5
2022-08-12T01:07:06.403Z,32.1
2022-08-12T01:08:08.870Z,32.1
2022-08-12T01:09:10.772Z,32.2
2022-08-12T01:10:13.249Z,32.3
2022-08-12T01:11:15.446Z,32.2
2022-08-12T01:12:17.484Z,32.3
2022-08-12T01:13:20.456Z,32.4
2022-08-12T01:14:23.275Z,32.4
2022-08-12T01:15:25.756Z,32.3
2022-08-12T01:16:27.660Z,32.1
2022-08-12T01:17:29.852Z,32.3
2022-08-12T01:18:32.054Z,32.3
2022-08-12T01:19:34.313Z,32.2
2022-08-12T01:20:36.787Z,32.3
2022-08-12T01:21:39.268Z,32.2
2022-08-12T01:22:41.780Z,32.2
2022-08-12T01:23:44.322Z,32.3
2022-08-12T01:24:46.531Z,32.4
2022-08-12T01:25:55.561Z,32.3
2022-08-12T01:26:54.009Z,32.4
2022-08-12T01:27:56.202Z,32.4
2022-08-12T01:28:58.800Z,32.2
2022-08-12T01:30:01.819Z,32.5
2022-08-12T01:31:03.737Z,32.3
2022-08-12T01:32:05.955Z,32.2
2022-08-12T01:33:08.593Z,32.4
2022-08-12T01:34:22.949Z,32.3
2022-08-12T01:35:16.079Z,32.4
2022-08-12T01:36:18.550Z,32.5
2022-08-12T01:37:21.022Z,32.4
2022-08-12T01:38:29.590Z,32.3
2022-08-12T01:39:28.251Z,32
2022-08-12T01:40:35.644Z,32.3
2022-08-12T01:41:36.087Z,32.2
2022-08-12T01:42:38.489Z,32.2
2022-08-12T01:43:42.229Z,32.5
2022-08-12T01:44:44.486Z,32.2
2022-08-12T01:45:46.683Z,32.5
2022-08-12T01:46:49.150Z,32.4
2022-08-12T01:47:51.517Z,32.5
2022-08-12T01:48:53.434Z,32.3
2022-08-12T01:49:55.924Z,32.3
2022-08-12T01:51:00.287Z,32.3
2022-08-12T01:52:14.913Z,32.7
2022-08-12T01:53:08.108Z,32.3
2022-08-12T01:54:10.575Z,32.2
2022-08-12T01:55:12.772Z,32.6
2022-08-12T01:56:14.401Z,32.2
2022-08-12T01:57:16.874Z,32.4
2022-08-12T01:58:21.868Z,32.4
2022-08-12T01:59:25.984Z,32.5
2022-08-12T02:00:35.495Z,32.4
2022-08-12T02:01:33.217Z,32.4
2022-08-12T02:02:35.847Z,32.5
2022-08-12T02:03:37.803Z,32.4
2022-08-12T02:04:40.000Z,32.5
2022-08-12T02:05:42.199Z,32.3
2022-08-12T02:06:44.116Z,32.3
2022-08-12T02:07:46.326Z,32.4
2022-08-12T02:08:48.795Z,32.4
2022-08-12T02:09:53.805Z,32.4
2022-08-12T02:10:56.027Z,32.5
2022-08-12T02:11:58.735Z,32.4
2022-08-12T02:13:06.008Z,32.5
2022-08-12T02:14:08.201Z,32.4
2022-08-12T02:15:10.677Z,32.2
2022-08-12T02:16:12.306Z,32.4
2022-08-12T02:17:14.507Z,32.3
2022-08-12T02:18:16.702Z,32.3
2022-08-12T02:19:22.699Z,32.3
2022-08-12T02:20:24.181Z,32.3
2022-08-12T02:21:29.175Z,32.3
2022-08-12T02:22:31.671Z,32.5
2022-08-12T02:23:33.500Z,32.5
2022-08-12T02:24:35.980Z,32.3
2022-08-12T02:25:38.189Z,32.3
2022-08-12T02:26:40.430Z,32.3
2022-08-12T02:27:42.900Z,32.1
2022-08-12T02:28:45.098Z,32.7
2022-08-12T02:29:47.305Z,32.3
2022-08-12T02:30:49.776Z,32.3
2022-08-12T02:31:51.995Z,32.4
2022-08-12T02:32:54.551Z,32.5
2022-08-12T02:33:58.721Z,32.8
2022-08-12T02:35:01.192Z,32.5
2022-08-12T02:36:03.666Z,32.4
2022-08-12T02:37:05.879Z,32.5
2022-08-12T02:38:08.361Z,32.4
2022-08-12T02:39:10.596Z,32.2
2022-08-12T02:40:13.063Z,32.4
2022-08-12T02:41:15.535Z,32.4
2022-08-12T02:42:18.009Z,32.6
2022-08-12T02:43:20.491Z,32.4
2022-08-12T02:44:22.403Z,32.7
2022-08-12T02:45:24.888Z,32.2
2022-08-12T02:46:27.116Z,32.5
2022-08-12T02:47:56.029Z,32.4
2022-08-12T02:48:34.591Z,32.5
2022-08-12T02:49:36.499Z,32.5
2022-08-12T02:50:38.189Z,32.7
2022-08-12T02:51:39.849Z,32.2
2022-08-12T02:52:42.268Z,32.4
2022-08-12T02:53:44.880Z,32.4
2022-08-12T02:54:50.401Z,32.5
2022-08-12T02:55:52.325Z,32.5
2022-08-12T02:56:54.526Z,32.4
2022-08-12T02:57:57.013Z,32.5
2022-08-12T02:59:03.693Z,32.7
2022-08-12T03:00:06.211Z,32.5
2022-08-12T03:01:08.176Z,32.7
2022-08-12T03:02:10.235Z,32.4
2022-08-12T03:03:12.452Z,32.4
2022-08-12T03:04:20.431Z,32.6
2022-08-12T03:05:20.072Z,32.2
2022-08-12T03:06:25.063Z,32.4
2022-08-12T03:07:28.861Z,32.5
2022-08-12T03:08:33.159Z,32.6
2022-08-12T03:09:39.106Z,32.1
2022-08-12T03:10:44.102Z,32.2
2022-08-12T03:11:49.127Z,32.2
2022-08-12T03:12:53.887Z,32.1
2022-08-12T03:13:58.316Z,31.9
2022-08-12T03:15:00.790Z,32.1
2022-08-12T03:16:02.722Z,31.8
2022-08-12T03:17:04.616Z,32
2022-08-12T03:18:23.360Z,32
2022-08-12T03:19:12.087Z,32.4
2022-08-12T03:20:14.303Z,32.1
2022-08-12T03:21:16.799Z,32.3
2022-08-12T03:22:22.289Z,32.2
2022-08-12T03:23:28.796Z,31.6
2022-08-12T03:24:29.769Z,32
2022-08-12T03:25:33.981Z,31.9
2022-08-12T03:26:36.453Z,31.9
2022-08-12T03:27:38.918Z,31.9
2022-08-12T03:28:41.389Z,31.7
2022-08-12T03:29:50.193Z,31.8
2022-08-12T03:30:50.656Z,31.9
2022-08-12T03:31:53.863Z,31.7
2022-08-12T03:32:55.514Z,31.5
2022-08-12T03:34:01.155Z,31.7
2022-08-12T03:35:02.717Z,31.7
2022-08-12T03:36:05.196Z,31.8
2022-08-12T03:37:07.393Z,31.5
2022-08-12T03:38:09.650Z,31.7
2022-08-12T03:39:14.102Z,31.8
2022-08-12T03:40:17.040Z,31.8
2022-08-12T03:41:19.364Z,31.8
2022-08-12T03:42:21.846Z,31.5
2022-08-12T03:43:24.858Z,31.5
2022-08-12T03:44:27.064Z,31.6
2022-08-12T03:45:29.538Z,31.7
2022-08-12T03:46:32.020Z,31.4
2022-08-12T03:47:34.502Z,31.9
2022-08-12T03:48:36.128Z,31.6
2022-08-12T03:49:38.332Z,31.6
2022-08-12T03:50:40.589Z,31.7
2022-08-12T03:51:42.773Z,31.3
2022-08-12T03:52:45.246Z,31.7
2022-08-12T03:53:46.895Z,31.6
2022-08-12T03:54:49.100Z,31.7
2022-08-12T03:55:51.294Z,31.4
2022-08-12T03:56:52.922Z,31.7
2022-08-12T03:57:55.125Z,31.5
2022-08-12T03:58:57.380Z,31.5
2022-08-12T04:00:01.929Z,31.8
2022-08-12T04:01:04.507Z,31.8
2022-08-12T04:02:07.206Z,31.5
2022-08-12T04:03:12.792Z,31.7
2022-08-12T04:04:14.675Z,31.6
2022-08-12T04:05:16.894Z,31.5
2022-08-12T04:06:34.656Z,31.6
2022-08-12T04:07:26.886Z,31.5
2022-08-12T04:08:29.081Z,31.4
2022-08-12T04:09:31.566Z,31.6
2022-08-12T04:10:34.041Z,31.7
2022-08-12T04:11:36.543Z,31.4
2022-08-12T04:12:41.710Z,31.5
2022-08-12T04:13:44.867Z,31.3
2022-08-12T04:14:47.069Z,31.3
2022-08-12T04:15:49.556Z,31.5
2022-08-12T04:16:51.772Z,31.6
2022-08-12T04:18:07.128Z,31.7
2022-08-12T04:18:58.966Z,31.6
2022-08-12T04:20:01.462Z,31.6
2022-08-12T04:21:03.802Z,31.4
2022-08-12T04:22:05.981Z,31.4
2022-08-12T04:23:08.152Z,31.6
2022-08-12T04:24:10.623Z,31.3
2022-08-12T04:25:12.858Z,31.6
2022-08-12T04:26:15.846Z,31.3
2022-08-12T04:27:18.330Z,31.6
2022-08-12T04:28:20.251Z,31.6
2022-08-12T04:29:22.460Z,31.6
2022-08-12T04:30:33.049Z,31.5
2022-08-12T04:31:32.450Z,31.4
2022-08-12T04:32:34.671Z,31.6
2022-08-12T04:33:40.794Z,31.4
2022-08-12T04:34:42.988Z,31.3
2022-08-12T04:35:45.468Z,31.6
2022-08-12T04:36:47.945Z,31.3
2022-08-12T04:37:57.842Z,31.5
2022-08-12T04:38:59.125Z,31.5
2022-08-12T04:40:00.177Z,31.5
2022-08-12T04:41:02.383Z,31.7
2022-08-12T04:42:04.858Z,31.3
2022-08-12T04:43:07.329Z,31.5
2022-08-12T04:44:12.327Z,31.5
2022-08-12T04:45:14.820Z,31.4
2022-08-12T04:46:23.400Z,31.4
2022-08-12T04:47:24.814Z,31.4
2022-08-12T04:48:27.281Z,31.6
2022-08-12T04:49:33.556Z,31.3
2022-08-12T04:50:37.010Z,31.3
2022-08-12T04:51:39.442Z,31.4
2022-08-12T04:52:41.149Z,31.4
2022-08-12T04:53:44.123Z,31.3
2022-08-12T04:54:46.643Z,31.7
2022-08-12T04:55:48.830Z,31.6
2022-08-12T04:57:03.410Z,31.5
2022-08-12T04:57:56.012Z,31.6
2022-08-12T04:58:58.488Z,31.6
2022-08-12T05:00:00.399Z,31.5
2022-08-12T05:01:02.909Z,31.4
2022-08-12T05:02:04.602Z,31.5
2022-08-12T05:03:09.567Z,31.3
2022-08-12T05:04:12.045Z,31.5
2022-08-12T05:05:13.971Z,31.6
2022-08-12T05:06:16.896Z,31.5
2022-08-12T05:07:20.892Z,31.6
2022-08-12T05:08:22.832Z,31.5
2022-08-12T05:09:25.339Z,31.6
2022-08-12T05:10:33.043Z,31.8
2022-08-12T05:11:35.331Z,31.6
2022-08-12T05:12:42.423Z,31.5
2022-08-12T05:13:44.730Z,31.3
2022-08-12T05:14:46.679Z,31.4
2022-08-12T05:16:02.708Z,31.6
2022-08-12T05:16:53.602Z,31.5
2022-08-12T05:17:59.929Z,31.5
2022-08-12T05:19:02.524Z,31.4
2022-08-12T05:20:04.251Z,31.6
2022-08-12T05:21:12.865Z,31.4
2022-08-12T05:22:15.060Z,31.5
2022-08-12T05:23:17.547Z,31.6
2022-08-12T05:24:19.721Z,31.4
2022-08-12T05:25:22.324Z,31.3
2022-08-12T05:26:24.936Z,31.5
2022-08-12T05:27:27.398Z,31.4
2022-08-12T05:28:33.373Z,31.3
2022-08-12T05:30:05.926Z,31.4
2022-08-12T05:30:40.564Z,31.5
2022-08-12T05:31:47.812Z,31.4
2022-08-12T05:32:47.485Z,31.5
2022-08-12T05:33:49.689Z,31.6
2022-08-12T05:34:51.611Z,31.2
2022-08-12T05:35:53.825Z,31.4
2022-08-12T05:36:56.312Z,31.5
2022-08-12T05:37:58.239Z,31.6
2022-08-12T05:39:00.442Z,31.3
2022-08-12T05:40:05.757Z,31.5
2022-08-12T05:41:07.635Z,31.5
2022-08-12T05:42:11.671Z,31.6
2022-08-12T05:43:14.153Z,31.3
2022-08-12T05:44:17.045Z,31.6
2022-08-12T05:45:19.246Z,31.6
2022-08-12T05:46:21.455Z,31.6
2022-08-12T05:47:23.936Z,31.5
2022-08-12T05:48:28.937Z,31.5
2022-08-12T05:49:31.416Z,31.5
2022-08-12T05:50:33.939Z,31.4
2022-08-12T05:51:38.654Z,31.3
2022-08-12T05:52:41.473Z,31.5
2022-08-12T05:53:44.755Z,31.6
2022-08-12T05:54:57.334Z,31.5
2022-08-12T05:55:52.231Z,31.4
2022-08-12T05:56:54.718Z,31.2
2022-08-12T05:57:56.647Z,31.5
2022-08-12T05:58:59.125Z,31.2
2022-08-12T06:00:01.083Z,31.3
2022-08-12T06:02:08.339Z,31.3
2022-08-12T06:02:13.338Z,31.3
2022-08-12T06:03:13.605Z,31.3
2022-08-12T06:04:18.032Z,31.2
2022-08-12T06:05:20.226Z,31.5
2022-08-12T06:06:24.539Z,31.5
2022-08-12T06:07:37.555Z,31.3
2022-08-12T06:08:32.693Z,31.2
2022-08-12T06:09:34.629Z,31.6
2022-08-12T06:10:37.146Z,31.3
2022-08-12T06:11:39.129Z,31.3
2022-08-12T06:12:44.355Z,31.4
2022-08-12T06:13:52.944Z,31.4
2022-08-12T06:14:51.600Z,31.4
2022-08-12T06:15:53.805Z,31.2
2022-08-12T06:16:56.303Z,31.3
2022-08-12T06:17:59.803Z,31.5
2022-08-12T06:19:01.727Z,31.3
2022-08-12T06:20:22.232Z,31.3
2022-08-12T06:21:09.203Z,31.6
2022-08-12T06:22:12.832Z,31.4
2022-08-12T06:23:15.048Z,31.6
2022-08-12T06:24:17.528Z,31.6
2022-08-12T06:25:21.969Z,31.2
2022-08-12T06:26:24.727Z,31.2
2022-08-12T06:27:27.207Z,31.5
2022-08-12T06:28:29.147Z,31.6
2022-08-12T06:29:35.915Z,31.5
2022-08-12T06:30:38.882Z,31.7
2022-08-12T06:31:41.355Z,31.4
2022-08-12T06:32:47.630Z,31.6
2022-08-12T06:33:56.161Z,31.4
2022-08-12T06:35:22.758Z,31.4
2022-08-12T06:35:58.767Z,31.2
2022-08-12T06:37:02.957Z,31.3
2022-08-12T06:38:05.139Z,31.3
2022-08-12T06:39:14.655Z,31.6
2022-08-12T06:40:11.769Z,31.5
2022-08-12T06:41:13.710Z,31.4
2022-08-12T06:42:32.661Z,31.3
2022-08-12T06:43:20.659Z,31.4
2022-08-12T06:44:22.858Z,31.4
2022-08-12T06:45:25.326Z,31.2
2022-08-12T06:46:30.320Z,31.4
2022-08-12T06:47:32.818Z,31.4
2022-08-12T06:48:35.025Z,31.3
2022-08-12T06:49:37.523Z,31.4
2022-08-12T06:50:40.368Z,31.2
2022-08-12T06:51:42.353Z,31.4
2022-08-12T06:52:47.354Z,31.3
2022-08-12T06:53:49.835Z,31.3
2022-08-12T06:54:51.762Z,31.4
2022-08-12T06:55:56.878Z,31.3
2022-08-12T06:57:57.697Z,31.3
2022-08-12T06:58:07.221Z,31.3
2022-08-12T06:59:09.165Z,31.6
2022-08-12T07:00:11.361Z,31.4
2022-08-12T07:01:13.885Z,31.6
2022-08-12T07:02:16.783Z,31.2
2022-08-12T07:03:22.954Z,31.3
2022-08-12T07:04:39.874Z,31.4
2022-08-12T07:05:29.249Z,31.5
2022-08-12T07:06:31.757Z,31.2
2022-08-12T07:07:34.285Z,31.3
2022-08-12T07:08:36.787Z,31.2
2022-08-12T07:09:56.083Z,31.4
2022-08-12T07:10:44.001Z,31.3
2022-08-12T07:11:50.815Z,31.5
2022-08-12T07:12:51.485Z,31.4
2022-08-12T07:14:02.819Z,31.3
2022-08-12T07:14:58.961Z,31.5
2022-08-12T07:16:00.915Z,31.2
2022-08-12T07:17:03.392Z,31.3
2022-08-12T07:18:05.861Z,31.3
2022-08-12T07:19:08.095Z,31.2
2022-08-12T07:20:20.489Z,31.3
2022-08-12T07:21:16.381Z,31.4
2022-08-12T07:22:18.618Z,31.4
2022-08-12T07:23:20.834Z,31
2022-08-12T07:24:23.305Z,31.2
2022-08-12T07:25:25.508Z,31.2
2022-08-12T07:26:27.431Z,31.1
2022-08-12T07:27:30.080Z,31.3
2022-08-12T07:28:32.290Z,31.2
2022-08-12T07:29:57.692Z,31.3
2022-08-12T07:30:39.766Z,31.3
2022-08-12T07:31:41.738Z,31.3
2022-08-12T07:32:44.151Z,31.3
2022-08-12T07:33:46.391Z,31.2
2022-08-12T07:34:48.622Z,31.3
2022-08-12T07:35:50.588Z,31.2
2022-08-12T07:36:52.535Z,31.2
2022-08-12T07:37:54.762Z,31.2
2022-08-12T07:38:57.239Z,31.4
2022-08-12T07:40:01.375Z,31.2
2022-08-12T07:41:03.929Z,31.2
2022-08-12T07:42:06.426Z,31.3
2022-08-12T07:43:09.166Z,31.3
2022-08-12T07:44:11.368Z,31.6
2022-08-12T07:45:13.852Z,31.2
2022-08-12T07:46:16.358Z,31.5
2022-08-12T07:47:18.841Z,31.5
2022-08-12T07:48:21.337Z,31.5
2022-08-12T07:49:24.401Z,31.3
2022-08-12T07:50:26.722Z,31.3
2022-08-12T07:51:29.007Z,31.3
2022-08-12T07:52:31.597Z,31.1
2022-08-12T07:53:34.253Z,31.5
2022-08-12T07:54:39.251Z,31.5
2022-08-12T07:55:41.153Z,31.4
2022-08-12T07:56:43.656Z,31.3
2022-08-12T07:57:45.569Z,31.5
2022-08-12T07:58:47.784Z,31.5
2022-08-12T07:59:49.705Z,31.5
2022-08-12T08:00:54.424Z,31.5
2022-08-12T08:01:56.761Z,31.4
2022-08-12T08:02:59.672Z,31.5
2022-08-12T08:04:02.158Z,31.3
2022-08-12T08:05:04.846Z,31.1
2022-08-12T08:06:07.333Z,31.4
2022-08-12T08:07:12.337Z,31.3
2022-08-12T08:08:14.549Z,31.2
2022-08-12T08:09:16.742Z,31.6
2022-08-12T08:10:18.681Z,31.4
2022-08-12T08:11:20.647Z,31.5
2022-08-12T08:12:23.126Z,31.4
2022-08-12T08:13:29.445Z,31.4
2022-08-12T08:14:31.945Z,31.4
2022-08-12T08:16:01.040Z,31.3
2022-08-12T08:16:39.473Z,31.5
2022-08-12T08:17:41.683Z,31.2
2022-08-12T08:18:43.604Z,31.3
2022-08-12T08:19:48.622Z,31.3
2022-08-12T08:20:50.820Z,31.3
2022-08-12T08:21:52.747Z,31.3
2022-08-12T08:22:54.411Z,31.4
2022-08-12T08:23:57.531Z,31.4
2022-08-12T08:25:01.337Z,31.5
2022-08-12T08:26:03.544Z,31.1
2022-08-12T08:27:05.765Z,31.3
2022-08-12T08:28:07.978Z,31.2
2022-08-12T08:29:09.667Z,31.3
2022-08-12T08:30:11.608Z,31.3
2022-08-12T08:31:13.893Z,31.3
2022-08-12T08:32:16.481Z,31.2
2022-08-12T08:33:20.193Z,31.2
2022-08-12T08:34:33.285Z,31.4
2022-08-12T08:35:46.628Z,31.3
2022-08-12T08:36:33.384Z,31.3
2022-08-12T08:37:38.364Z,31.5
2022-08-12T08:38:44.258Z,31.1
2022-08-12T08:39:49.300Z,31
2022-08-12T08:40:52.270Z,31.2
2022-08-12T08:42:13.583Z,31.2
2022-08-12T08:42:59.772Z,31.3
2022-08-12T08:44:02.358Z,31.2
2022-08-12T08:45:04.850Z,31.1
2022-08-12T08:46:07.060Z,31.2
2022-08-12T08:47:09.253Z,31
2022-08-12T08:48:11.159Z,31
2022-08-12T08:49:13.101Z,31.2
2022-08-12T08:50:15.598Z,31.2
2022-08-12T08:51:17.804Z,31.4
2022-08-12T08:52:38.986Z,31.2
2022-08-12T08:53:25.301Z,31.1
2022-08-12T08:54:27.508Z,31.1
2022-08-12T08:55:42.551Z,31.4
2022-08-12T08:56:34.707Z,31.3
2022-08-12T08:57:43.280Z,31
2022-08-12T08:58:41.911Z,31
2022-08-12T08:59:44.127Z,31.1
2022-08-12T09:00:49.416Z,31.3
2022-08-12T09:01:52.147Z,31.2
2022-08-12T09:02:58.948Z,31.2
2022-08-12T09:04:21.861Z,31.3
2022-08-12T09:05:10.565Z,31.2
2022-08-12T09:06:09.875Z,31.2
2022-08-12T09:07:17.580Z,31.3
2022-08-12T09:08:22.516Z,31.4
2022-08-12T09:09:24.866Z,31.2
2022-08-12T09:10:31.008Z,31.4
2022-08-12T09:11:52.408Z,31.1
2022-08-12T09:14:18.848Z,31.1
2022-08-12T09:15:34.887Z,31.2
2022-08-12T09:16:29.334Z,31
2022-08-12T09:17:42.225Z,31.1
2022-08-12T09:18:42.028Z,31.3
2022-08-12T09:19:47.237Z,31.4
2022-08-12T09:20:52.905Z,31.2
2022-08-12T09:21:55.612Z,31.1
2022-08-12T09:23:07.729Z,31.2
2022-08-12T09:25:25.431Z,31.2
2022-08-12T09:27:58.086Z,31.2
2022-08-12T09:28:57.117Z,31.2
2022-08-12T09:30:09.176Z,31.2
2022-08-12T09:31:54.105Z,31.3
2022-08-12T09:34:27.067Z,31.2
2022-08-12T09:34:54.467Z,31.3
2022-08-12T09:36:03.386Z,31.3
2022-08-12T09:37:19.006Z,31.3
2022-08-12T09:38:28.053Z,31.3
2022-08-12T09:40:00.783Z,31.5
2022-08-12T09:40:58.396Z,31.2
2022-08-12T09:42:10.494Z,31.1
2022-08-12T09:42:35.442Z,31.3
2022-08-12T09:43:34.925Z,31.2
2022-08-12T09:44:42.108Z,31
2022-08-12T09:46:05.808Z,31.1
2022-08-12T09:46:56.243Z,31.1
2022-08-12T09:48:00.843Z,31.2
2022-08-12T09:49:13.354Z,31.2
2022-08-12T09:50:20.239Z,31.2
2022-08-12T09:51:22.293Z,31.2
2022-08-12T09:52:22.609Z,31.2
2022-08-12T09:53:29.146Z,31.2
2022-08-12T09:54:35.064Z,31.2
2022-08-12T09:55:57.257Z,31.4
2022-08-12T09:58:47.227Z,31.4
2022-08-12T10:00:12.414Z,31.2
2022-08-12T10:02:40.086Z,31.4
2022-08-12T10:03:31.517Z,31.5
2022-08-12T10:04:19.477Z,31.3
2022-08-12T10:05:22.263Z,31.2
2022-08-12T10:06:32.142Z,31.2
2022-08-12T10:07:39.561Z,31.5
2022-08-12T10:08:37.741Z,31.1
2022-08-12T10:09:56.970Z,31.3
2022-08-12T10:10:44.947Z,31.4
2022-08-12T10:12:11.036Z,31.3
2022-08-12T10:13:07.346Z,31.2
2022-08-12T10:13:59.936Z,31.4
2022-08-12T10:15:07.303Z,31.3
2022-08-12T10:16:18.836Z,31.3
2022-08-12T10:17:17.905Z,31.3
2022-08-12T10:18:21.626Z,31.4
2022-08-12T10:19:36.426Z,31.4
2022-08-12T10:20:31.618Z,31.1
2022-08-12T10:21:37.740Z,31.2
2022-08-12T10:22:41.284Z,31.1
2022-08-12T10:23:48.404Z,31.3
2022-08-12T10:24:53.203Z,31.4
2022-08-12T10:26:18.679Z,31.3
2022-08-12T10:27:00.479Z,31.1
2022-08-12T10:28:09.854Z,31.4
2022-08-12T10:30:01.237Z,31.4
2022-08-12T10:30:39.125Z,31.4
2022-08-12T10:31:26.734Z,31.2
2022-08-12T10:32:43.350Z,31.4
2022-08-12T10:33:43.781Z,31.4
2022-08-12T10:34:47.421Z,31.3
2022-08-12T10:35:46.724Z,31.3
2022-08-12T10:36:52.222Z,31.3
2022-08-12T10:38:32.752Z,31.3
2022-08-12T10:39:00.613Z,31.3
2022-08-12T10:40:11.216Z,31.5
2022-08-12T10:41:18.950Z,31.2
2022-08-12T10:42:18.278Z,31.6
2022-08-12T10:43:22.276Z,31.4
2022-08-12T10:44:24.642Z,31.2
2022-08-12T10:45:30.348Z,31.4
2022-08-12T10:46:32.488Z,31.2
2022-08-12T10:48:01.478Z,31.5
2022-08-12T10:48:39.429Z,31.4
2022-08-12T10:50:01.855Z,31.4
2022-08-12T10:50:56.542Z,31.2
2022-08-12T10:52:05.084Z,31.1
2022-08-12T10:52:56.637Z,31.2
2022-08-12T10:54:02.180Z,31.3
2022-08-12T10:55:06.882Z,31.4
2022-08-12T10:56:10.042Z,31.2
2022-08-12T10:57:18.047Z,31.3
2022-08-12T10:58:27.762Z,31.4
2022-08-12T10:59:39.045Z,31
2022-08-12T11:00:55.636Z,31.2
2022-08-12T11:04:22.261Z,31.2
2022-08-12T11:07:04.572Z,31.4
2022-08-12T11:08:33.190Z,31.2
2022-08-12T11:08:35.393Z,31.2
2022-08-12T11:09:42.225Z,31.3
2022-08-12T11:10:38.355Z,31.4
2022-08-12T11:12:08.635Z,31.2
2022-08-12T11:12:57.341Z,31.3
2022-08-12T11:13:56.520Z,31.2
2022-08-12T11:15:14.890Z,31.3
2022-08-12T11:16:19.315Z,31.3
2022-08-12T11:17:33.858Z,31.4
2022-08-12T11:18:18.147Z,31.5
2022-08-12T11:19:22.388Z,31.3
2022-08-12T11:20:29.201Z,31.1
2022-08-12T11:21:31.047Z,31.2
2022-08-12T11:22:35.576Z,31.3
2022-08-12T11:23:38.417Z,31.4
2022-08-12T11:24:42.582Z,31.2
2022-08-12T11:25:56.983Z,31.3
2022-08-12T11:26:52.633Z,31.3
2022-08-12T11:27:55.178Z,31.3
2022-08-12T11:29:05.799Z,31.5
2022-08-12T11:30:06.690Z,31.4
2022-08-12T11:31:10.033Z,31.4
2022-08-12T11:32:14.540Z,31.3
2022-08-12T11:33:23.931Z,31.4
2022-08-12T11:34:52.102Z,31.2
2022-08-12T11:35:27.578Z,31.3
2022-08-12T11:36:39.278Z,31.3
2022-08-12T11:37:58.532Z,31.4
2022-08-12T11:38:50.647Z,31.4
2022-08-12T11:40:57.725Z,31.3
2022-08-12T11:42:03.779Z,31.6
2022-08-12T11:43:17.970Z,31.3
2022-08-12T11:44:29.200Z,31.2
2022-08-12T11:45:21.707Z,31.4
2022-08-12T11:46:25.191Z,31.2
2022-08-12T11:47:32.161Z,31.4
2022-08-12T11:48:51.602Z,31.6
2022-08-12T11:49:45.724Z,31.4
2022-08-12T11:50:49.107Z,31.3
2022-08-12T11:51:57.700Z,31.3
2022-08-12T11:52:58.426Z,31.4
2022-08-12T11:54:02.877Z,31.3
2022-08-12T11:55:05.518Z,31.3
2022-08-12T11:56:08.011Z,31.2
2022-08-12T11:58:03.849Z,31.2
2022-08-12T11:58:53.015Z,31.3
2022-08-12T12:02:05.949Z,31.4
2022-08-12T12:03:08.616Z,31.3
2022-08-12T12:04:22.675Z,31.5
2022-08-12T12:05:21.189Z,31.3
2022-08-12T12:06:26.182Z,31.6
2022-08-12T12:07:34.085Z,31.4
2022-08-12T12:08:40.257Z,31.4
2022-08-12T12:09:52.129Z,31.4
2022-08-12T12:10:43.621Z,31.5
2022-08-12T12:11:49.579Z,31.5
2022-08-12T12:12:56.802Z,31.7
2022-08-12T12:14:07.221Z,31.2
2022-08-12T12:15:06.691Z,31.5
2022-08-12T12:16:09.293Z,31.2
2022-08-12T12:17:11.508Z,31.7
2022-08-12T12:18:13.433Z,31.5
2022-08-12T12:19:19.715Z,31.5
2022-08-12T12:20:25.955Z,31.3
2022-08-12T12:21:46.809Z,31.5
2022-08-12T12:22:38.153Z,31.4
2022-08-12T12:23:47.019Z,31.3
2022-08-12T12:24:46.258Z,31.3
2022-08-12T12:25:59.158Z,31.4
2022-08-12T12:26:59.901Z,31.5
2022-08-12T12:28:01.979Z,31.4
2022-08-12T12:29:03.747Z,31.2
2022-08-12T12:30:13.270Z,31.6
2022-08-12T12:32:06.614Z,31.3
2022-08-12T12:32:22.901Z,31.4
2022-08-12T12:33:24.790Z,31.7
2022-08-12T12:34:30.992Z,31.6
2022-08-12T12:36:06.945Z,31.5
2022-08-12T12:36:39.438Z,31.5
2022-08-12T12:37:59.165Z,31.5
2022-08-12T12:38:47.769Z,31.3
2022-08-12T12:39:54.970Z,31.7
2022-08-12T12:40:54.772Z,31.5
2022-08-12T12:42:42.328Z,31.5
2022-08-12T12:43:04.982Z,31.7
2022-08-12T12:44:07.333Z,31.7
2022-08-12T12:45:19.298Z,31.5
2022-08-12T12:46:17.321Z,31.6
2022-08-12T12:47:28.996Z,31.3
2022-08-12T12:48:28.184Z,31.4
2022-08-12T12:49:30.663Z,31.3
2022-08-12T12:50:35.661Z,31.5
2022-08-12T12:51:49.687Z,31.5
2022-08-12T12:52:42.708Z,31.5
2022-08-12T12:54:05.989Z,31.6
2022-08-12T12:54:53.757Z,31.6
2022-08-12T12:55:56.841Z,31.6
2022-08-12T12:57:01.840Z,31.4
2022-08-12T12:58:05.181Z,31.4
2022-08-12T12:59:33.637Z,31.7
2022-08-12T13:00:13.543Z,31.6
2022-08-12T13:01:25.285Z,31.2
2022-08-12T13:02:31.177Z,31.4
2022-08-12T13:03:25.504Z,31.6
2022-08-12T13:04:31.224Z,31.5
2022-08-12T13:05:42.401Z,31.4
2022-08-12T13:06:41.214Z,31.8
2022-08-12T13:07:49.108Z,31.5
2022-08-12T13:08:48.777Z,31.6
2022-08-12T13:09:54.695Z,31.9
2022-08-12T13:10:59.682Z,31.7
2022-08-12T13:12:02.309Z,31.4
2022-08-12T13:14:08.342Z,31.8
2022-08-12T13:14:28.548Z,31.6
2022-08-12T13:16:58.387Z,31.6
2022-08-12T13:18:04.929Z,31.6
2022-08-12T13:19:08.556Z,31.3
2022-08-12T13:20:11.114Z,31.7
2022-08-12T13:21:32.632Z,31.6
2022-08-12T13:22:23.420Z,31.4
2022-08-12T13:23:36.647Z,31.7
2022-08-12T13:24:31.562Z,31.2
2022-08-12T13:25:34.195Z,31.6
2022-08-12T13:26:40.693Z,31.6
2022-08-12T13:27:43.724Z,31.4
2022-08-12T13:28:53.188Z,31.5
2022-08-12T13:29:53.712Z,31.4
2022-08-12T13:30:58.707Z,31.6
2022-08-12T13:32:18.653Z,31.5
2022-08-12T13:33:05.909Z,31.5
2022-08-12T13:34:28.351Z,31.5
2022-08-12T13:35:19.507Z,31.6
2022-08-12T13:36:20.899Z,31.7
2022-08-12T13:37:26.969Z,31.7
2022-08-12T13:38:35.016Z,31.8
2022-08-12T13:39:36.997Z,31.6
2022-08-12T13:40:40.208Z,31.7
2022-08-12T13:41:46.667Z,31.6
2022-08-12T13:42:51.664Z,31.3
2022-08-12T13:43:54.287Z,31.8
2022-08-12T13:44:56.688Z,31.5
2022-08-12T13:46:03.275Z,31.8
2022-08-12T13:47:06.745Z,31.3
2022-08-12T13:48:10.180Z,31.5
2022-08-12T13:49:17.546Z,31.4
2022-08-12T13:50:16.956Z,31.6
2022-08-12T13:51:24.242Z,31.6
2022-08-12T13:52:30.081Z,31.5
2022-08-12T13:53:39.842Z,31.6
2022-08-12T13:54:37.800Z,31.6
2022-08-12T13:55:41.154Z,31.4
2022-08-12T13:56:49.765Z,31.5
2022-08-12T13:57:49.377Z,31.5
2022-08-12T13:58:52.651Z,31.4
2022-08-12T14:00:00.645Z,31.7
2022-08-12T14:01:03.644Z,31.6
2022-08-12T14:02:11.517Z,31.6
2022-08-12T14:03:14.321Z,31.2
2022-08-12T14:04:16.496Z,31.4
2022-08-12T14:05:30.113Z,31.4
2022-08-12T14:06:30.317Z,31.3
2022-08-12T14:07:32.023Z,31.4
2022-08-12T14:08:37.027Z,31.4
2022-08-12T14:09:42.512Z,31.4
2022-08-12T14:10:50.732Z,31.5
2022-08-12T14:11:54.826Z,31.5
2022-08-12T14:12:57.502Z,31.5
2022-08-12T14:14:04.447Z,31.5
2022-08-12T14:15:07.558Z,31.6
2022-08-12T14:16:09.854Z,31.4
2022-08-12T14:17:14.853Z,31.4
2022-08-12T14:18:19.870Z,31.5
2022-08-12T14:19:27.181Z,31.5
2022-08-12T14:20:29.633Z,31.3
2022-08-12T14:21:59.995Z,31.5
2022-08-12T14:22:38.340Z,31.5
2022-08-12T14:24:01.810Z,31.6
2022-08-12T14:24:48.826Z,31.5
2022-08-12T14:25:53.823Z,31.4
2022-08-12T14:27:01.848Z,31.5
2022-08-12T14:28:08.847Z,31.3